Time;durP1;ratioP1;P1;durP2;ratioP2;P2;SDS_P1;SDS_P2;PMS_P1;PMS_P2;Temp;Humidity;BMP_temperature;BMP_pressure;BME280_temperature;BME280_humidity;BME280_pressure;Samples;Min_cycle;Max_cycle;Signal;HPM_P1;HPM_P2
2023/09/23 00:01:15;;;;;;;8.10;6.07;;;;;;;11.10;100.00;100321.38;4982800;28;20205;-47
2023/09/23 00:03:41;;;;;;;6.10;5.55;;;;;;;11.04;100.00;100321.66;4977737;28;20173;-49
2023/09/23 00:06:07;;;;;;;4.70;4.38;;;;;;;11.06;100.00;100319.78;4983217;28;20196;-49
2023/09/23 00:08:33;;;;;;;7.20;5.60;;;;;;;11.08;100.00;100339.34;4980847;28;20185;-48
2023/09/23 00:10:58;;;;;;;8.07;6.03;;;;;;;11.04;100.00;100340.44;4982067;28;20205;-50
2023/09/23 00:13:25;;;;;;;5.80;5.30;;;;;;;11.13;100.00;100334.66;4980582;28;20612;-51
2023/09/23 00:15:51;;;;;;;5.75;5.25;;;;;;;11.16;100.00;100329.13;4980879;28;20213;-49
2023/09/23 00:18:17;;;;;;;5.78;5.28;;;;;;;11.03;100.00;100334.22;4981186;28;20223;-48
2023/09/23 00:20:44;;;;;;;8.07;6.40;;;;;;;11.02;100.00;100335.19;4981632;28;20213;-47
2023/09/23 00:23:10;;;;;;;7.07;6.40;;;;;;;10.89;100.00;100336.69;4980294;28;20212;-48
2023/09/23 00:25:35;;;;;;;9.00;6.60;;;;;;;10.91;100.00;100324.06;4984347;28;20197;-49
2023/09/23 00:28:02;;;;;;;7.82;6.25;;;;;;;10.97;100.00;100320.25;4981713;28;20269;-49
2023/09/23 00:30:29;;;;;;;8.43;7.47;;;;;;;10.98;100.00;100330.91;4983889;28;20174;-48
2023/09/23 00:32:55;;;;;;;10.75;8.00;;;;;;;10.90;100.00;100327.72;4980247;28;20202;-47
2023/09/23 00:35:20;;;;;;;14.15;8.50;;;;;;;10.86;100.00;100320.75;4982807;28;20186;-48
2023/09/23 00:37:48;;;;;;;11.15;8.52;;;;;;;10.84;100.00;100328.00;4978613;28;20178;-48
2023/09/23 00:40:18;;;;;;;10.40;7.90;;;;;;;10.78;100.00;100322.91;4984220;28;20185;-48
2023/09/23 00:42:47;;;;;;;10.85;8.32;;;;;;;10.71;100.00;100320.56;4993831;28;20209;-47
2023/09/23 00:45:15;;;;;;;11.68;7.90;;;;;;;10.77;100.00;100318.50;4980504;28;20224;-48
2023/09/23 00:47:42;;;;;;;10.75;8.15;;;;;;;10.79;100.00;100320.16;4980599;28;20188;-47
2023/09/23 00:50:18;;;;;;;9.63;8.38;;;;;;;10.63;100.00;100321.84;4981623;28;20200;-48
2023/09/23 00:52:48;;;;;;;10.60;8.38;;;;;;;10.62;100.00;100315.59;4979165;28;20245;-47
2023/09/23 00:55:16;;;;;;;12.95;8.50;;;;;;;10.58;100.00;100321.16;4982238;28;20193;-48
2023/09/23 00:57:52;;;;;;;10.55;7.93;;;;;;;10.62;100.00;100314.75;4981447;28;20193;-47
2023/09/23 01:00:25;;;;;;;14.23;8.98;;;;;;;10.51;100.00;100326.81;4980166;28;20694;-48
2023/09/23 01:02:51;;;;;;;8.38;7.63;;;;;;;10.55;100.00;100326.69;4981658;28;20580;-47
2023/09/23 01:05:19;;;;;;;8.85;7.65;;;;;;;10.61;100.00;100331.78;4981867;28;20177;-47
2023/09/23 01:07:48;;;;;;;7.95;7.20;;;;;;;10.69;100.00;100338.50;4982695;28;20196;-47
2023/09/23 01:10:17;;;;;;;6.97;6.30;;;;;;;10.72;100.00;100334.81;4979325;28;20178;-47
2023/09/23 01:12:45;;;;;;;7.85;7.05;;;;;;;10.63;100.00;100343.28;4983611;28;20209;-47
2023/09/23 01:15:12;;;;;;;9.52;7.20;;;;;;;10.69;100.00;100343.88;4983426;28;20185;-50
2023/09/23 01:17:38;;;;;;;7.70;6.95;;;;;;;10.75;100.00;100341.84;4982653;28;20676;-48
2023/09/23 01:20:08;;;;;;;9.25;7.90;;;;;;;10.68;100.00;100338.56;4983071;28;20192;-50
2023/09/23 01:22:34;;;;;;;10.40;9.30;;;;;;;10.75;100.00;100345.38;4983869;28;20204;-51
2023/09/23 01:25:00;;;;;;;11.38;10.18;;;;;;;10.71;100.00;100344.66;4979743;28;20265;-51
2023/09/23 01:27:26;;;;;;;11.50;10.13;;;;;;;10.83;100.00;100345.03;4982635;28;20274;-50
2023/09/23 01:29:53;;;;;;;13.35;10.80;;;;;;;10.89;100.00;100348.28;4985626;28;20192;-50
2023/09/23 01:32:37;;;;;;;14.23;10.77;;;;;;;10.99;100.00;100347.84;4998884;28;20201;-51
2023/09/23 01:35:06;;;;;;;10.48;9.48;;;;;;;10.95;100.00;100355.16;4984374;28;20648;-49
2023/09/23 01:37:32;;;;;;;10.30;9.20;;;;;;;10.93;100.00;100349.00;4983636;28;20193;-49
2023/09/23 01:39:58;;;;;;;10.35;9.38;;;;;;;10.97;100.00;100355.94;4973433;28;20229;-49
2023/09/23 01:42:24;;;;;;;14.25;9.45;;;;;;;10.90;100.00;100357.19;4984381;28;20213;-51
2023/09/23 01:44:50;;;;;;;12.75;9.52;;;;;;;10.87;100.00;100354.66;4984291;28;20182;-49
2023/09/23 01:47:17;;;;;;;9.32;8.52;;;;;;;10.96;100.00;100354.22;4984575;28;20181;-48
2023/09/23 01:49:45;;;;;;;8.15;7.40;;;;;;;11.07;100.00;100367.13;4984148;28;20217;-50
2023/09/23 01:52:10;;;;;;;10.10;8.90;;;;;;;11.05;100.00;100369.88;4981687;28;20279;-49
2023/09/23 01:54:36;;;;;;;9.40;8.40;;;;;;;11.08;100.00;100367.03;4989552;28;20581;-51
2023/09/23 01:57:04;;;;;;;8.65;7.63;;;;;;;11.16;100.00;100368.50;4981710;28;20197;-50
2023/09/23 01:59:29;;;;;;;10.10;8.43;;;;;;;11.14;100.00;100363.19;4987379;28;20182;-49
2023/09/23 02:01:55;;;;;;;9.13;7.97;;;;;;;11.11;100.00;100363.34;4983774;28;20240;-49
2023/09/23 02:04:20;;;;;;;9.75;8.75;;;;;;;11.09;100.00;100359.88;4987097;28;20672;-50
2023/09/23 02:06:46;;;;;;;8.55;7.70;;;;;;;11.20;100.00;100357.53;4982991;28;20671;-49
2023/09/23 02:09:12;;;;;;;9.20;7.40;;;;;;;11.21;100.00;100364.63;4982457;28;20533;-50
2023/09/23 02:11:37;;;;;;;10.30;8.27;;;;;;;11.06;100.00;100365.38;4986376;28;20565;-51
2023/09/23 02:14:06;;;;;;;9.30;8.35;;;;;;;11.00;100.00;100357.59;5000865;28;20191;-50
2023/09/23 02:16:33;;;;;;;11.02;7.72;;;;;;;11.03;100.00;100361.03;4998006;28;20225;-50
2023/09/23 02:18:59;;;;;;;10.98;8.95;;;;;;;11.02;100.00;100369.13;4985444;28;20181;-49
2023/09/23 02:21:27;;;;;;;13.35;9.40;;;;;;;10.91;100.00;100375.00;4983566;28;20213;-51
2023/09/23 02:23:55;;;;;;;9.73;8.68;;;;;;;11.00;100.00;100373.69;4985296;28;20181;-50
2023/09/23 02:26:22;;;;;;;9.25;8.43;;;;;;;11.07;100.00;100372.47;4987398;28;20209;-51
2023/09/23 02:28:48;;;;;;;10.98;9.82;;;;;;;11.07;100.00;100381.38;4988629;28;20182;-49
2023/09/23 02:31:15;;;;;;;10.55;9.45;;;;;;;11.09;100.00;100379.50;5001022;28;20305;-51
2023/09/23 02:33:43;;;;;;;11.55;10.27;;;;;;;11.06;100.00;100378.75;4982715;28;20202;-49
2023/09/23 02:36:09;;;;;;;11.23;10.07;;;;;;;11.14;100.00;100388.19;4981324;28;20196;-49
2023/09/23 02:38:34;;;;;;;12.45;11.07;;;;;;;11.11;100.00;100385.66;4981897;28;20576;-49
2023/09/23 02:41:02;;;;;;;18.85;11.65;;;;;;;11.16;100.00;100387.25;4982305;28;20208;-50
2023/09/23 02:43:28;;;;;;;11.95;10.75;;;;;;;11.22;100.00;100403.94;4982237;28;20237;-50
2023/09/23 02:45:56;;;;;;;12.82;10.45;;;;;;;11.28;100.00;100400.06;4995794;28;20688;-51
2023/09/23 02:48:21;;;;;;;14.63;9.40;;;;;;;11.29;100.00;100410.72;4984026;28;20186;-51
2023/09/23 02:50:47;;;;;;;10.43;9.52;;;;;;;11.30;100.00;100419.63;4982175;28;20687;-51
2023/09/23 02:53:13;;;;;;;9.48;8.68;;;;;;;11.34;100.00;100414.03;4983754;28;20297;-51
2023/09/23 02:55:42;;;;;;;9.70;8.70;;;;;;;11.44;100.00;100419.84;4987818;28;20518;-49
2023/09/23 02:58:08;;;;;;;12.90;10.18;;;;;;;11.44;100.00;100427.03;4981163;28;20206;-51
2023/09/23 03:00:34;;;;;;;13.05;10.57;;;;;;;11.51;100.00;100434.69;4983175;28;20217;-51
2023/09/23 03:03:08;;;;;;;12.57;11.38;;;;;;;11.51;100.00;100437.38;4980690;28;20264;-49
2023/09/23 03:05:38;;;;;;;12.93;11.57;;;;;;;11.49;100.00;100447.31;4985461;28;20191;-49
2023/09/23 03:08:07;;;;;;;14.93;13.43;;;;;;;11.44;100.00;100449.34;4990099;28;20193;-51
2023/09/23 03:10:39;;;;;;;18.05;14.77;;;;;;;11.43;100.00;100450.28;4982140;28;20189;-50
2023/09/23 03:13:07;;;;;;;15.90;14.30;;;;;;;11.46;100.00;100460.03;4980384;28;20202;-50
2023/09/23 03:15:37;;;;;;;16.55;14.43;;;;;;;11.51;100.00;100450.78;4982358;28;20188;-50
2023/09/23 03:18:03;;;;;;;16.15;13.48;;;;;;;11.54;100.00;100452.44;4984379;28;20201;-50
2023/09/23 03:20:30;;;;;;;15.25;13.30;;;;;;;11.56;100.00;100450.56;4983531;28;20186;-49
2023/09/23 03:22:57;;;;;;;19.58;17.58;;;;;;;11.58;100.00;100456.72;4988054;28;20233;-49
2023/09/23 03:25:23;;;;;;;20.00;18.08;;;;;;;11.61;100.00;100442.28;4982768;28;20209;-49
2023/09/23 03:27:52;;;;;;;17.45;15.50;;;;;;;11.68;100.00;100433.03;4984869;28;20192;-50
2023/09/23 03:30:19;;;;;;;20.38;18.52;;;;;;;11.70;100.00;100433.81;4981806;28;20217;-48
2023/09/23 03:32:46;;;;;;;18.63;16.85;;;;;;;11.69;100.00;100440.09;4986116;28;20561;-51
2023/09/23 03:35:16;;;;;;;18.85;17.05;;;;;;;11.67;100.00;100440.19;4985419;28;20201;-49
2023/09/23 03:37:43;;;;;;;15.15;13.25;;;;;;;11.75;100.00;100438.00;4979736;28;20189;-49
2023/09/23 03:40:09;;;;;;;16.83;15.32;;;;;;;11.81;100.00;100441.34;4979126;28;20540;-49
2023/09/23 03:42:34;;;;;;;18.48;16.67;;;;;;;11.79;100.00;100435.19;4979781;28;20218;-49
2023/09/23 03:45:03;;;;;;;18.48;16.75;;;;;;;11.81;100.00;100438.66;4982373;28;20189;-51
2023/09/23 03:47:28;;;;;;;18.33;16.63;;;;;;;11.80;100.00;100437.75;4979534;28;20190;-50
2023/09/23 03:49:54;;;;;;;20.23;18.23;;;;;;;11.76;100.00;100444.22;4982335;28;20189;-50
2023/09/23 03:52:20;;;;;;;20.17;18.17;;;;;;;11.75;100.00;100450.56;4988479;28;20365;-50
2023/09/23 03:54:45;;;;;;;21.17;19.08;;;;;;;11.76;100.00;100446.91;4987475;28;20194;-50
2023/09/23 03:57:11;;;;;;;20.95;18.88;;;;;;;11.77;100.00;100454.03;4980312;28;20185;-48
2023/09/23 03:59:36;;;;;;;19.15;17.38;;;;;;;11.74;100.00;100464.91;4991106;28;20178;-50
2023/09/23 04:02:01;;;;;;;19.80;17.90;;;;;;;11.65;100.00;100468.03;4981925;28;20300;-50
2023/09/23 04:04:27;;;;;;;21.27;19.23;;;;;;;11.64;100.00;100471.69;4997338;28;20173;-49
2023/09/23 04:06:53;;;;;;;20.95;19.05;;;;;;;11.71;100.00;100482.03;4981803;28;20185;-50
2023/09/23 04:09:18;;;;;;;21.48;19.17;;;;;;;11.64;100.00;100480.59;4984198;28;20264;-49
2023/09/23 04:11:45;;;;;;;18.42;16.08;;;;;;;11.69;100.00;100483.03;4980576;28;20669;-50
2023/09/23 04:14:11;;;;;;;20.90;18.95;;;;;;;11.64;100.00;100477.91;4981110;28;21158;-51
2023/09/23 04:16:37;;;;;;;17.48;15.23;;;;;;;11.71;100.00;100486.53;4978204;28;20189;-50
2023/09/23 04:19:03;;;;;;;18.38;15.32;;;;;;;11.72;100.00;100482.91;4984656;28;20180;-49
2023/09/23 04:21:31;;;;;;;18.55;16.65;;;;;;;11.74;100.00;100484.56;4981163;28;20217;-49
2023/09/23 04:23:57;;;;;;;18.20;16.40;;;;;;;11.64;100.00;100485.97;4983313;28;20280;-50
2023/09/23 04:26:24;;;;;;;23.48;16.00;;;;;;;11.61;100.00;100490.59;4984583;28;20271;-50
2023/09/23 04:28:52;;;;;;;16.20;14.43;;;;;;;11.62;100.00;100501.25;4983021;28;20186;-49
2023/09/23 04:31:18;;;;;;;16.73;15.00;;;;;;;11.60;100.00;100511.19;4982027;28;20225;-50
2023/09/23 04:33:44;;;;;;;17.45;15.55;;;;;;;11.60;100.00;100505.81;4983968;28;20268;-50
2023/09/23 04:36:11;;;;;;;17.27;14.50;;;;;;;11.63;100.00;100510.16;4983214;28;20201;-49
2023/09/23 04:38:37;;;;;;;18.40;15.70;;;;;;;11.65;100.00;100509.16;4986667;28;20193;-50
2023/09/23 04:41:02;;;;;;;17.98;16.08;;;;;;;11.60;100.00;100505.81;4978504;28;20220;-50
2023/09/23 04:43:30;;;;;;;18.90;15.45;;;;;;;11.65;100.00;100509.16;4985378;28;20181;-49
2023/09/23 04:45:57;;;;;;;18.80;16.73;;;;;;;11.62;100.00;100506.63;4980748;28;20584;-49
2023/09/23 04:48:24;;;;;;;17.33;15.63;;;;;;;11.71;100.00;100500.81;4982826;28;20185;-49
2023/09/23 04:50:52;;;;;;;17.33;15.55;;;;;;;11.73;100.00;100506.13;4982826;28;20178;-50
2023/09/23 04:53:18;;;;;;;20.63;14.27;;;;;;;11.78;100.00;100511.25;4982188;28;20189;-49
2023/09/23 04:55:45;;;;;;;18.15;15.20;;;;;;;11.73;100.00;100516.84;4984229;28;20193;-51
2023/09/23 04:58:12;;;;;;;15.50;13.05;;;;;;;11.77;100.00;100515.75;4985777;28;20186;-49
2023/09/23 05:00:41;;;;;;;13.88;12.35;;;;;;;11.82;100.00;100515.53;4980861;28;20209;-49
2023/09/23 05:03:08;;;;;;;14.57;13.10;;;;;;;11.82;100.00;100516.41;4988102;28;20202;-49
2023/09/23 05:05:35;;;;;;;16.08;12.55;;;;;;;11.78;100.00;100517.50;4985876;28;20192;-50
2023/09/23 05:08:05;;;;;;;17.05;14.20;;;;;;;11.65;100.00;100524.38;4990901;28;20571;-50
2023/09/23 05:10:30;;;;;;;15.70;13.05;;;;;;;11.65;100.00;100521.72;4987915;28;20197;-51
2023/09/23 05:12:56;;;;;;;11.98;10.85;;;;;;;11.72;100.00;100524.03;4987228;28;20204;-50
2023/09/23 05:15:23;;;;;;;12.93;11.57;;;;;;;11.70;100.00;100527.75;4988672;28;20193;-50
2023/09/23 05:17:49;;;;;;;14.05;12.52;;;;;;;11.65;100.00;100541.34;4988329;28;20185;-49
2023/09/23 05:20:25;;;;;;;13.82;12.38;;;;;;;11.55;100.00;100540.94;4987289;28;20216;-51
2023/09/23 05:22:50;;;;;;;15.23;12.27;;;;;;;11.58;100.00;100544.41;4985905;28;20204;-51
2023/09/23 05:25:16;;;;;;;17.48;13.02;;;;;;;11.61;100.00;100537.09;4986727;28;20178;-50
2023/09/23 05:27:43;;;;;;;14.30;12.80;;;;;;;11.54;100.00;100531.16;4984975;28;20198;-48
2023/09/23 05:30:13;;;;;;;13.98;12.48;;;;;;;11.50;100.00;100529.56;4983363;28;20320;-51
2023/09/23 05:32:38;;;;;;;13.75;12.35;;;;;;;11.48;100.00;100542.16;4987611;28;20282;-50
2023/09/23 05:35:09;;;;;;;12.38;11.15;;;;;;;11.54;100.00;100543.69;4988736;28;20658;-50
2023/09/23 05:37:35;;;;;;;13.95;11.90;;;;;;;11.57;100.00;100554.28;4986052;28;20583;-51
2023/09/23 05:40:00;;;;;;;16.25;11.50;;;;;;;11.59;100.00;100559.56;4986692;28;20548;-49
2023/09/23 05:42:26;;;;;;;13.10;11.70;;;;;;;11.62;100.00;100567.47;4983615;28;20224;-50
2023/09/23 05:44:52;;;;;;;11.75;10.55;;;;;;;11.62;100.00;100573.72;4988082;28;20304;-49
2023/09/23 05:47:17;;;;;;;12.10;10.25;;;;;;;11.64;100.00;100565.59;4983918;28;20185;-50
2023/09/23 05:49:43;;;;;;;14.57;12.20;;;;;;;11.66;100.00;100574.44;4986644;28;20674;-51
2023/09/23 05:52:10;;;;;;;13.80;12.40;;;;;;;11.73;100.00;100583.94;4983712;28;20249;-48
2023/09/23 05:54:36;;;;;;;14.45;11.45;;;;;;;11.93;100.00;100578.53;4984341;28;20187;-51
2023/09/23 05:57:02;;;;;;;13.32;11.63;;;;;;;12.09;100.00;100583.16;4981318;28;20189;-50
2023/09/23 05:59:27;;;;;;;13.30;10.52;;;;;;;12.16;100.00;100587.31;4984682;28;20569;-51
2023/09/23 06:01:53;;;;;;;12.43;11.13;;;;;;;12.15;100.00;100588.22;4985234;28;20214;-50
2023/09/23 06:04:18;;;;;;;15.30;12.10;;;;;;;12.33;100.00;100600.78;4984358;28;20189;-49
2023/09/23 06:06:44;;;;;;;14.43;11.07;;;;;;;12.47;100.00;100601.91;4982981;28;20173;-50
2023/09/23 06:09:09;;;;;;;10.98;9.48;;;;;;;12.58;100.00;100597.72;4985984;28;20641;-50
2023/09/23 06:11:35;;;;;;;9.18;8.27;;;;;;;12.66;100.00;100600.03;4982573;28;20563;-49
2023/09/23 06:14:01;;;;;;;9.85;8.38;;;;;;;12.91;100.00;100606.84;4986651;28;20271;-52
2023/09/23 06:16:27;;;;;;;9.50;8.38;;;;;;;13.10;100.00;100604.09;4980671;28;20284;-49
2023/09/23 06:18:52;;;;;;;10.57;9.52;;;;;;;13.33;100.00;100602.88;4990984;28;20197;-49
2023/09/23 06:21:18;;;;;;;11.20;9.30;;;;;;;13.41;100.00;100602.50;4981790;28;20564;-49
2023/09/23 06:23:44;;;;;;;11.75;9.52;;;;;;;13.31;100.00;100605.66;4986716;28;20186;-51
2023/09/23 06:26:10;;;;;;;8.82;7.93;;;;;;;13.22;100.00;100607.94;4979731;28;20177;-51
2023/09/23 06:28:37;;;;;;;9.60;8.60;;;;;;;13.01;100.00;100605.44;4981482;28;20272;-49
2023/09/23 06:31:03;;;;;;;9.10;8.18;;;;;;;12.94;100.00;100601.31;4982278;28;20256;-50
2023/09/23 06:33:29;;;;;;;8.75;7.90;;;;;;;12.88;100.00;100604.31;4985655;28;20890;-48
2023/09/23 06:35:55;;;;;;;8.55;7.65;;;;;;;12.83;100.00;100606.38;4985373;28;20316;-50
2023/09/23 06:38:20;;;;;;;9.05;8.15;;;;;;;12.78;100.00;100604.78;4981148;28;20293;-50
2023/09/23 06:40:46;;;;;;;7.20;6.55;;;;;;;12.99;100.00;100618.09;4981407;28;20210;-50
2023/09/23 06:43:12;;;;;;;8.95;7.05;;;;;;;13.10;100.00;100604.94;4984783;28;20209;-51
2023/09/23 06:45:37;;;;;;;8.20;7.40;;;;;;;13.39;100.00;100616.03;4985865;28;20193;-50
2023/09/23 06:48:04;;;;;;;7.68;6.88;;;;;;;13.28;100.00;100621.97;4983052;28;20212;-50
2023/09/23 06:50:29;;;;;;;9.00;7.10;;;;;;;13.24;100.00;100614.97;4980551;28;20247;-50
2023/09/23 06:52:55;;;;;;;7.20;6.55;;;;;;;13.48;100.00;100620.03;4981590;28;20217;-50
2023/09/23 06:55:20;;;;;;;6.88;6.28;;;;;;;13.29;100.00;100615.63;4982683;28;20185;-49
2023/09/23 06:57:46;;;;;;;7.63;6.88;;;;;;;12.97;100.00;100617.28;4984785;28;20189;-51
2023/09/23 07:00:12;;;;;;;8.35;7.43;;;;;;;13.26;100.00;100614.91;4977000;28;20707;-50
2023/09/23 07:02:37;;;;;;;8.13;7.32;;;;;;;13.22;100.00;100622.25;4991597;28;20272;-49
2023/09/23 07:05:03;;;;;;;10.43;7.75;;;;;;;12.99;100.00;100613.56;4983911;28;20185;-52
2023/09/23 07:07:29;;;;;;;8.20;7.40;;;;;;;12.92;100.00;100619.31;4980497;28;20190;-50
2023/09/23 07:09:54;;;;;;;8.70;7.60;;;;;;;12.96;100.00;100628.97;4984026;28;20320;-51
2023/09/23 07:12:20;;;;;;;9.18;7.78;;;;;;;12.96;100.00;100620.91;4978250;28;20205;-50
2023/09/23 07:14:46;;;;;;;10.35;8.07;;;;;;;12.85;100.00;100632.22;4981905;28;20189;-50
2023/09/23 07:17:11;;;;;;;31.33;29.05;;;;;;;12.92;100.00;100616.63;4984699;28;20208;-49
2023/09/23 07:19:37;;;;;;;60.83;56.63;;;;;;;13.05;100.00;100635.72;4980962;28;20261;-51
2023/09/23 07:22:03;;;;;;;11.30;9.25;;;;;;;13.02;100.00;100630.50;4980771;28;20237;-50
2023/09/23 07:24:30;;;;;;;244.07;225.50;;;;;;;12.95;100.00;100633.50;4978568;28;20228;-48
2023/09/23 07:26:57;;;;;;;337.15;300.67;;;;;;;13.26;100.00;100644.50;4981171;28;20194;-49
2023/09/23 07:29:24;;;;;;;342.20;313.88;;;;;;;13.09;100.00;100640.84;4981860;28;20189;-49
2023/09/23 07:31:50;;;;;;;382.27;345.02;;;;;;;13.31;100.00;100646.00;4979046;28;20194;-50
2023/09/23 07:34:16;;;;;;;461.38;348.13;;;;;;;13.17;100.00;100656.59;4980698;28;20272;-52
2023/09/23 07:36:44;;;;;;;384.08;343.13;;;;;;;13.26;100.00;100655.25;4982104;28;20272;-49
2023/09/23 07:39:12;;;;;;;384.83;344.48;;;;;;;13.27;100.00;100665.94;4984921;28;20194;-50
2023/09/23 07:41:39;;;;;;;455.10;355.25;;;;;;;13.09;100.00;100659.69;4979844;28;20221;-50
2023/09/23 07:44:04;;;;;;;561.45;357.02;;;;;;;13.06;100.00;100667.06;4982979;28;20193;-50
2023/09/23 07:46:30;;;;;;;576.20;366.75;;;;;;;13.06;100.00;100667.06;4980062;28;20196;-49
2023/09/23 07:48:56;;;;;;;651.15;355.42;;;;;;;13.15;100.00;100666.56;4983988;28;20193;-50
2023/09/23 07:51:22;;;;;;;658.97;350.70;;;;;;;13.39;100.00;100672.53;4980827;28;20209;-51
2023/09/23 07:53:50;;;;;;;577.85;354.50;;;;;;;13.36;100.00;100678.09;4983451;28;20177;-49
2023/09/23 07:56:15;;;;;;;644.80;350.50;;;;;;;13.36;100.00;100678.09;4981777;28;20201;-49
2023/09/23 07:58:41;;;;;;;51.60;22.13;;;;;;;13.62;100.00;100668.59;4980037;28;20181;-50
2023/09/23 08:01:07;;;;;;;11.25;9.98;;;;;;;14.19;100.00;100668.19;4999171;28;20301;-49
2023/09/23 08:03:33;;;;;;;10.80;9.52;;;;;;;14.51;100.00;100674.47;4987552;28;20302;-51
2023/09/23 08:05:59;;;;;;;9.38;8.48;;;;;;;14.64;100.00;100677.38;4983861;28;20189;-51
2023/09/23 08:08:24;;;;;;;9.55;8.65;;;;;;;14.61;100.00;100673.03;4979740;28;20559;-49
2023/09/23 08:10:50;;;;;;;9.38;8.57;;;;;;;14.16;100.00;100677.31;4981239;28;20194;-48
2023/09/23 08:13:19;;;;;;;8.93;8.05;;;;;;;14.11;100.00;100689.31;4980769;28;20185;-48
2023/09/23 08:15:45;;;;;;;8.68;7.88;;;;;;;14.01;100.00;100692.53;4979396;28;20181;-49
2023/09/23 08:18:12;;;;;;;8.70;7.57;;;;;;;14.10;100.00;100692.97;4981571;28;20185;-50
2023/09/23 08:20:39;;;;;;;7.40;6.70;;;;;;;14.10;100.00;100701.03;4980773;28;20193;-49
2023/09/23 08:23:05;;;;;;;7.00;6.40;;;;;;;13.95;100.00;100703.63;4983581;28;20237;-49
2023/09/23 08:25:31;;;;;;;7.07;6.47;;;;;;;13.89;100.00;100700.41;4982416;28;20204;-48
2023/09/23 08:27:56;;;;;;;9.43;6.05;;;;;;;13.93;100.00;100708.25;4982540;28;20197;-50
2023/09/23 08:30:22;;;;;;;6.65;5.97;;;;;;;13.91;100.00;100703.88;4980423;28;20572;-51
2023/09/23 08:32:48;;;;;;;7.13;6.10;;;;;;;14.14;100.00;100713.41;4980131;28;20212;-48
2023/09/23 08:35:13;;;;;;;6.45;5.85;;;;;;;14.17;100.00;100702.47;4984818;28;20259;-50
2023/09/23 08:37:39;;;;;;;6.78;5.72;;;;;;;14.31;100.00;100701.69;4986961;28;20718;-48
2023/09/23 08:40:10;;;;;;;6.78;6.18;;;;;;;14.46;100.00;100705.34;4989628;28;20189;-48
2023/09/23 08:42:38;;;;;;;5.95;5.50;;;;;;;14.53;100.00;100704.03;4982933;28;20208;-49
2023/09/23 08:45:08;;;;;;;5.97;5.47;;;;;;;14.69;100.00;100707.63;4991125;28;20193;-51
2023/09/23 08:47:36;;;;;;;6.30;5.63;;;;;;;14.36;100.00;100703.16;4989588;28;20186;-52
2023/09/23 08:50:06;;;;;;;5.63;4.70;;;;;;;14.31;100.00;100709.78;4986132;28;20687;-50
2023/09/23 08:52:32;;;;;;;5.15;4.75;;;;;;;13.87;100.00;100707.69;4986618;28;20204;-50
2023/09/23 08:54:59;;;;;;;4.63;4.22;;;;;;;13.92;100.00;100713.69;4989784;28;20561;-51
2023/09/23 08:57:25;;;;;;;4.03;3.72;;;;;;;13.81;100.00;100716.97;5001493;28;20229;-49
2023/09/23 08:59:51;;;;;;;5.40;3.90;;;;;;;13.62;100.00;100717.06;4984028;28;20178;-50
2023/09/23 09:02:25;;;;;;;3.85;3.55;;;;;;;13.66;100.00;100720.47;4986763;28;20227;-50
2023/09/23 09:04:54;;;;;;;4.88;3.58;;;;;;;13.65;100.00;100741.16;4991421;28;20187;-50
2023/09/23 09:07:24;;;;;;;5.85;3.80;;;;;;;13.63;100.00;100740.34;4983682;28;20278;-51
2023/09/23 09:09:50;;;;;;;4.10;3.00;;;;;;;13.69;100.00;100752.63;4985383;28;20832;-50
2023/09/23 09:12:16;;;;;;;4.22;2.70;;;;;;;13.69;100.00;100750.81;4988073;28;20207;-51
2023/09/23 09:14:41;;;;;;;2.85;2.55;;;;;;;13.79;100.00;100759.25;4985942;28;20531;-50
2023/09/23 09:17:12;;;;;;;2.83;2.60;;;;;;;13.94;100.00;100771.03;4981589;28;20275;-51
2023/09/23 09:19:39;;;;;;;3.13;2.10;;;;;;;14.08;100.00;100770.28;4986314;28;20715;-47
2023/09/23 09:22:04;;;;;;;2.08;1.75;;;;;;;14.44;100.00;100775.53;4986731;28;20227;-48
2023/09/23 09:24:30;;;;;;;2.17;0.93;;;;;;;14.83;100.00;100767.03;4986146;28;20821;-49
2023/09/23 09:26:55;;;;;;;3.35;0.98;;;;;;;14.91;100.00;100765.72;4984681;28;20616;-50
2023/09/23 09:29:21;;;;;;;1.08;0.70;;;;;;;15.31;100.00;100763.44;4984575;28;20182;-50
2023/09/23 09:31:51;;;;;;;1.60;0.98;;;;;;;15.17;100.00;100762.38;4985904;28;20212;-50
2023/09/23 09:34:24;;;;;;;2.50;0.70;;;;;;;14.99;100.00;100774.25;4982156;28;20182;-50
2023/09/23 09:36:56;;;;;;;2.95;0.50;;;;;;;14.92;100.00;100773.75;4986119;28;20268;-49
2023/09/23 09:39:35;;;;;;;1.73;0.50;;;;;;;14.61;100.00;100774.63;4987095;28;20189;-49
2023/09/23 09:42:02;;;;;;;2.15;0.65;;;;;;;14.74;100.00;100772.97;4982742;28;20228;-49
2023/09/23 09:44:29;;;;;;;3.45;0.73;;;;;;;14.73;100.00;100771.22;4980194;28;20540;-52
2023/09/23 09:46:55;;;;;;;3.05;0.63;;;;;;;14.83;100.00;100772.44;4983534;28;20533;-50
2023/09/23 09:49:24;;;;;;;2.58;0.77;;;;;;;14.93;100.00;100785.41;4983773;28;20209;-52
2023/09/23 09:51:50;;;;;;;2.03;0.65;;;;;;;14.61;100.00;100771.94;4983115;28;20196;-49
2023/09/23 09:54:26;;;;;;;4.70;0.70;;;;;;;14.84;100.00;100776.88;4983097;28;20202;-49
2023/09/23 09:56:55;;;;;;;1.75;0.55;;;;;;;14.93;100.00;100793.50;4984769;28;20694;-49
2023/09/23 09:59:28;;;;;;;2.60;0.50;;;;;;;15.80;100.00;100782.13;4981807;28;20194;-50
2023/09/23 10:01:58;;;;;;;1.67;0.47;;;;;;;16.05;100.00;100782.34;4982819;28;20225;-50
2023/09/23 10:04:33;;;;;;;1.35;0.43;;;;;;;16.39;100.00;100790.19;4983133;28;20685;-52
2023/09/23 10:07:00;;;;;;;3.53;1.02;;;;;;;16.53;100.00;100789.28;4984179;28;20255;-50
2023/09/23 10:09:29;;;;;;;3.25;0.88;;;;;;;16.40;99.28;100787.38;4978417;28;20613;-50
2023/09/23 10:11:58;;;;;;;1.73;0.65;;;;;;;16.11;97.82;100794.59;4984394;28;20336;-51
2023/09/23 10:14:24;;;;;;;2.03;0.63;;;;;;;16.28;96.84;100794.41;4982531;28;20317;-50
2023/09/23 10:16:50;;;;;;;3.22;0.60;;;;;;;16.18;95.76;100819.41;4983114;28;20251;-50
2023/09/23 10:19:19;;;;;;;1.05;0.40;;;;;;;16.23;94.58;100812.78;4981548;28;20293;-49
2023/09/23 10:21:45;;;;;;;3.58;0.70;;;;;;;16.22;93.97;100813.75;4984163;28;20260;-51
2023/09/23 10:24:20;;;;;;;2.97;0.68;;;;;;;16.18;93.46;100808.59;4983290;28;20645;-52
2023/09/23 10:26:45;;;;;;;2.80;0.70;;;;;;;16.32;93.35;100803.22;4983722;28;20663;-50
2023/09/23 10:29:11;;;;;;;2.13;0.70;;;;;;;16.41;92.57;100813.44;4984855;28;20265;-48
2023/09/23 10:31:37;;;;;;;2.13;0.80;;;;;;;16.53;92.51;100809.13;4985229;28;20205;-50
2023/09/23 10:34:08;;;;;;;1.75;0.80;;;;;;;16.20;91.49;100812.09;4989547;28;20198;-50
2023/09/23 10:36:36;;;;;;;5.10;0.95;;;;;;;16.26;90.49;100812.56;4986125;28;20276;-49
2023/09/23 10:39:07;;;;;;;3.40;0.65;;;;;;;16.30;90.07;100801.59;4985113;28;20185;-50
2023/09/23 10:41:36;;;;;;;2.25;0.98;;;;;;;16.20;89.65;100828.31;4980680;28;20703;-50
2023/09/23 10:44:02;;;;;;;3.28;1.08;;;;;;;16.42;88.06;100814.31;4980328;28;20217;-48
2023/09/23 10:46:29;;;;;;;3.33;0.70;;;;;;;16.41;87.43;100821.56;4983089;28;20276;-50
2023/09/23 10:48:55;;;;;;;4.00;1.10;;;;;;;16.26;87.20;100830.63;4979999;28;20298;-49
2023/09/23 10:51:21;;;;;;;1.88;0.88;;;;;;;16.15;86.97;100825.03;4977455;28;20198;-50
2023/09/23 10:53:49;;;;;;;3.92;1.00;;;;;;;16.21;86.03;100830.91;4981893;28;20216;-49
2023/09/23 10:56:19;;;;;;;3.80;1.00;;;;;;;16.34;84.89;100824.75;4985966;28;20582;-50
2023/09/23 10:58:45;;;;;;;2.33;0.80;;;;;;;16.57;84.22;100818.75;4982669;28;20265;-48
2023/09/23 11:01:11;;;;;;;2.13;1.00;;;;;;;17.08;82.72;100821.81;4982711;28;20360;-49
2023/09/23 11:03:42;;;;;;;2.33;0.80;;;;;;;17.01;82.25;100816.88;4982215;28;20205;-51
2023/09/23 11:06:08;;;;;;;2.67;0.93;;;;;;;16.71;81.28;100809.78;4982198;28;20218;-49
2023/09/23 11:08:34;;;;;;;4.30;1.15;;;;;;;16.92;81.55;100809.38;4985324;28;20228;-48